»·PEaware :: N31SL KBUR-KLAS

N31SL :: KBUR-KLAS

FLIGHT INFORMATION

Flight Status: Arrived
Operator: Privately registered:
United States
More flights under this callsign
Pilot: Christian E. (23964)
Aircraft: Unknown
(DA62)
More flights by this aircraft type
Origin: KBUR Bob Hope-Burbank
United States
Destination: KLAS McCarran Intl
United States
More flights between these airports :: More routes between these airports
Route: VNY3 DAG CRESO4
File this flight plan on PilotEdge
Remarks: NONE
Altitude:
(Current/Filed)
10,000ft
Speed:
(Current/Filed)
150kts
Departed: 16-May-20 09:08 AM
Arrived: 16-May-20 10:43 AM
Distance/Time
Traveled:
193nm/1:35
Distance/Time
To Go:
Arrived

Flight Plot

Page will automatically refresh every two minutes.


Map Options




Map Legend


Flown Route
Filed Route
Departure Airport
Arrival Airport
Navaid (VOR, NDB)
Fix

Horizontal Profiles

Position Reports

Time Latitude Longitude Heading Altitude Ground
Speed
16-May-20 08:33 34.196458 -118.367895 180 725ft 0kts
16-May-20 08:34 34.196458 -118.367895 180 725ft 0kts
16-May-20 08:35 34.196458 -118.367895 180 725ft 0kts
16-May-20 08:37 34.196458 -118.367895 180 725ft 0kts
16-May-20 08:38 34.196458 -118.367895 180 725ft 0kts
16-May-20 08:39 34.196458 -118.367895 180 725ft 0kts
16-May-20 08:40 34.196458 -118.367895 180 725ft 0kts
16-May-20 08:41 34.196458 -118.367895 180 725ft 0kts
16-May-20 08:42 34.196458 -118.367895 180 725ft 0kts
16-May-20 08:43 34.196458 -118.367895 180 725ft 0kts
16-May-20 08:44 34.196458 -118.367895 180 725ft 0kts
16-May-20 08:45 34.196458 -118.367895 180 725ft 0kts
16-May-20 08:46 34.196458 -118.367895 180 725ft 0kts
16-May-20 08:47 34.196458 -118.367895 180 725ft 0kts
16-May-20 08:48 34.196458 -118.367895 180 725ft 0kts
16-May-20 08:49 34.196458 -118.367895 180 725ft 0kts
16-May-20 08:49 34.196458 -118.367895 180 725ft 0kts
16-May-20 08:51 34.196458 -118.367895 180 725ft 0kts
16-May-20 08:52 34.196458 -118.367895 180 725ft 0kts
16-May-20 08:52 34.196458 -118.367895 180 725ft 0kts
16-May-20 08:54 34.196458 -118.367895 180 725ft 0kts
16-May-20 08:55 34.196458 -118.367895 180 725ft 0kts
16-May-20 08:55 34.196458 -118.367895 180 725ft 0kts
16-May-20 08:56 34.196458 -118.367895 180 725ft 0kts
16-May-20 08:58 34.196458 -118.367895 180 725ft 0kts
16-May-20 08:58 34.196488 -118.367338 90 724ft 3kts
16-May-20 08:59 34.196916 -118.367316 270 725ft 5kts
16-May-20 09:00 34.197111 -118.368880 333 728ft 0kts
16-May-20 09:01 34.197111 -118.368880 333 728ft 0kts
16-May-20 09:02 34.197111 -118.368880 333 728ft 0kts
16-May-20 09:03 34.197111 -118.368880 333 728ft 0kts
16-May-20 09:04 34.197111 -118.368880 333 728ft 0kts
16-May-20 09:05 34.197111 -118.368880 333 728ft 0kts
16-May-20 09:06 34.197571 -118.369075 358 730ft 2kts
16-May-20 09:07 34.197861 -118.359560 90 787ft 96kts
16-May-20 09:08 34.181466 -118.344904 226 1959ft 102kts
16-May-20 09:09 34.160457 -118.369379 225 3031ft 108kts
16-May-20 09:10 34.137438 -118.396204 225 3979ft 121kts
16-May-20 09:11 34.112429 -118.425525 225 4891ft 128kts
16-May-20 09:12 34.086636 -118.455918 225 5795ft 131kts
16-May-20 09:13 34.060556 -118.486794 225 6696ft 132kts
16-May-20 09:14 34.034593 -118.517632 225 7586ft 132kts
16-May-20 09:15 34.008356 -118.548978 225 8484ft 133kts
16-May-20 09:16 33.984923 -118.582090 266 9362ft 134kts
16-May-20 09:17 34.012043 -118.600056 24 10259ft 137kts
16-May-20 09:18 34.047003 -118.579870 23 10986ft 150kts
16-May-20 09:19 34.090824 -118.561921 15 10989ft 170kts
16-May-20 09:20 34.134085 -118.547047 15 10989ft 166kts
16-May-20 09:21 34.179319 -118.531408 15 10991ft 171kts
16-May-20 09:22 34.225516 -118.515382 15 10990ft 173kts
16-May-20 09:23 34.272033 -118.499240 15 10990ft 174kts
16-May-20 09:24 34.317734 -118.483425 17 10999ft 173kts
16-May-20 09:25 34.364077 -118.467256 17 11000ft 174kts
16-May-20 09:26 34.400305 -118.431780 52 10999ft 171kts
16-May-20 09:27 34.429727 -118.386287 53 11007ft 171kts
16-May-20 09:28 34.458419 -118.340768 53 11019ft 171kts
16-May-20 09:29 34.487232 -118.294867 53 11035ft 171kts
16-May-20 09:30 34.516243 -118.248583 53 11050ft 173kts
16-May-20 09:31 34.545461 -118.201878 53 11062ft 173kts
16-May-20 09:32 34.574443 -118.155490 53 11063ft 172kts
16-May-20 09:33 34.602796 -118.110045 53 11064ft 172kts
16-May-20 09:34 34.629787 -118.062423 76 11065ft 170kts
16-May-20 09:35 34.637752 -118.005636 82 11061ft 170kts
16-May-20 09:36 34.644191 -117.948629 83 11059ft 171kts
16-May-20 09:37 34.650498 -117.890927 83 11056ft 172kts
16-May-20 09:38 34.656767 -117.833229 83 10999ft 174kts
16-May-20 09:39 34.663044 -117.775189 83 10983ft 171kts
16-May-20 09:40 34.675764 -117.719348 73 10988ft 171kts
16-May-20 09:41 34.689392 -117.664377 72 10992ft 170kts
16-May-20 09:42 34.703833 -117.609401 73 10998ft 170kts
16-May-20 09:43 34.717920 -117.554489 73 10999ft 170kts
16-May-20 09:44 34.731945 -117.499536 73 10999ft 170kts
16-May-20 09:45 34.745945 -117.444555 73 10999ft 170kts
16-May-20 09:46 34.759948 -117.389462 73 10998ft 170kts
16-May-20 09:47 34.773821 -117.334725 74 10999ft 170kts
16-May-20 09:48 34.787728 -117.279739 74 10995ft 170kts
16-May-20 09:49 34.801691 -117.224449 74 10990ft 171kts
16-May-20 09:50 34.815676 -117.168938 74 10983ft 171kts
16-May-20 09:51 34.829630 -117.113427 74 10975ft 172kts
16-May-20 09:52 34.843657 -117.057531 74 10970ft 172kts
16-May-20 09:53 34.857419 -117.002547 74 10966ft 173kts
16-May-20 09:54 34.871442 -116.946400 75 10964ft 173kts
16-May-20 09:55 34.885518 -116.889917 75 10964ft 174kts
16-May-20 09:56 34.899543 -116.833489 75 10964ft 174kts
16-May-20 09:57 34.913592 -116.776861 75 10964ft 174kts
16-May-20 09:58 34.927616 -116.720216 75 10964ft 174kts
16-May-20 09:59 34.941597 -116.663618 76 10964ft 174kts
16-May-20 10:00 34.955590 -116.606840 76 10964ft 174kts
16-May-20 10:01 34.974385 -116.552286 64 10964ft 176kts
16-May-20 10:02 34.997692 -116.499501 64 10964ft 176kts
16-May-20 10:03 35.020961 -116.447090 64 10962ft 173kts
16-May-20 10:04 35.043626 -116.395989 64 10963ft 170kts
16-May-20 10:05 35.065827 -116.345860 64 11007ft 167kts
16-May-20 10:06 35.087582 -116.296663 64 11020ft 169kts
16-May-20 10:07 35.110070 -116.245743 64 11017ft 170kts
16-May-20 10:08 35.132460 -116.194968 64 11017ft 169kts
16-May-20 10:09 35.154854 -116.144108 64 11017ft 169kts
16-May-20 10:10 35.177234 -116.093205 64 11008ft 170kts
16-May-20 10:11 35.199604 -116.042248 64 11008ft 169kts
16-May-20 10:12 35.221846 -115.991506 64 11008ft 169kts
16-May-20 10:13 35.244138 -115.940573 64 11008ft 169kts
16-May-20 10:14 35.266408 -115.889613 64 11009ft 169kts
16-May-20 10:15 35.288545 -115.838884 64 11011ft 169kts
16-May-20 10:16 35.311134 -115.788321 55 11012ft 170kts
16-May-20 10:17 35.342849 -115.744680 50 11010ft 171kts
16-May-20 10:18 35.375009 -115.701728 50 11016ft 171kts
16-May-20 10:19 35.407362 -115.658573 50 10883ft 177kts
16-May-20 10:20 35.441349 -115.613111 50 10488ft 182kts
16-May-20 10:21 35.475786 -115.567044 49 10068ft 182kts
16-May-20 10:22 35.508857 -115.522754 49 10015ft 170kts
16-May-20 10:23 35.540569 -115.480227 49 10016ft 167kts
16-May-20 10:24 35.572061 -115.437955 50 10027ft 169kts
16-May-20 10:25 35.603974 -115.395022 50 10028ft 171kts
16-May-20 10:26 35.636361 -115.351377 50 9494ft 176kts
16-May-20 10:27 35.668261 -115.308338 50 8309ft 170kts
16-May-20 10:28 35.699853 -115.265715 49 7114ft 166kts
16-May-20 10:30 35.727357 -115.229438 49 7031ft 140kts
16-May-20 10:31 35.755420 -115.192713 48 7028ft 150kts
16-May-20 10:32 35.789689 -115.164681 11 7025ft 157kts
16-May-20 10:33 35.832922 -115.156128 11 7021ft 157kts
16-May-20 10:34 35.876269 -115.147498 11 7019ft 157kts
16-May-20 10:35 35.919589 -115.138774 11 7018ft 157kts
16-May-20 10:36 35.962948 -115.129957 11 7016ft 157kts
16-May-20 10:37 36.005845 -115.121147 11 7015ft 156kts
16-May-20 10:38 36.048124 -115.110919 13 6019ft 155kts
16-May-20 10:39 36.090434 -115.099604 14 4465ft 153kts
16-May-20 10:40 36.125384 -115.102256 316 3623ft 111kts
16-May-20 10:41 36.120791 -115.137445 232 2976ft 99kts
16-May-20 10:42 36.099451 -115.156474 204 2180ft 94kts
16-May-20 10:43 36.089347 -115.163371 294 2128ft 0kts
16-May-20 10:43 36.089347 -115.163371 294 2128ft 0kts
16-May-20 10:45 36.089083 -115.164873 204 2134ft 11kts
16-May-20 10:46 36.085083 -115.167170 204 2151ft 19kts
16-May-20 10:46 36.081457 -115.169851 270 2166ft 9kts
16-May-20 10:47 36.081653 -115.171048 3 2168ft 0kts

Navigation Log

Ident Type
Flight plan parsing failed, navigation log unavailable